Scroll down
FLIGHT INFORMATION
United Airlines

UAL2377

At Arrival Gate

KDEN
 KAUS
DATE: 2021-01-21
GATE: B55
GATE DEPARTURE: 21:32
TAKEOFF: 21:56
DATE: 2021-01-21
GATE: G4
LANDING: 23:37
GATE ARRIVAL: 23:46
FLIGHT DATA
Crew: 
Speed: 
463 kts
Altitude: 
39,070 ft
Stage Length: 
674.3 nm
Block Time: 
2.1 hrs
Flight Time: 
1.7 hrs
Fuel Used: 
10,254 lb
Cleared Route: KDEN BRKEM LENNN TIKLR CIROS ICECI SHOJO SABTH VRONI PNH TURKI DUMPS ABI DILLO SZAGI LAIKS BOYZZ CRLOS HOUKM RW17L
TRACK DATA
50,000 ft 1,000 kts
AIRCRAFT INFO AND CUMULATIVE STATS
Aircraft Type: 
B739ERSSW
Registration: 
SELCAL: 
CEDJ
MSN/LN: 
60122 / 5168
Operator: 
Total Flights: 
16
Total Block Time: 
42.2 hrs
Total Flight Time: 
37.2 hrs
Total Fuel Time: 
224,193 lb
DATALINK LOG | Newest first | Current as of: 2021-06-22 14:25:07
LABEL SEQUENCE CONTENT Dn/Up
QD465123:46 8.8▼ Dn
QC384323:37▼ Dn
2U5708KAUS 211353Z 21003KT 9SM FEW034 FEW075 SCT150 BKN250 11/10 A3006 RMK AO2 SLP180 T01110100▲ Up
2S5805KAUS▼ Dn
GA5069GATE G4▲ Up
GR5059KAUS 23:36 MAAS 00 YP/UM 00/00 WCHR/S/C 00/00/00 HI-VAL NO DIPL/VIP NO▼ Dn
5U2657KAUS 211818Z 23005KT 6SM BR VCSH OVC012 11/10 A3006▲ Up
5S2635KAUS▼ Dn
2U2554KAUS 211353Z 21003KT 9SM FEW034 FEW075 SCT150 BKN250 11/10 A3006 RMK AO2 SLP180 T01110100▲ Up
2S2534KAUS▼ Dn
QB570821:56▼ Dn
2U4055KDEN 211253Z 24009KT 10SM SCT220 02/M09 A2993 RMK AO2 SLP128 T00171089▲ Up
2S4052KDEN▼ Dn
QA334621:32 19.1▼ Dn
UM2122347KDEN ATIS - DEN DEP INFO G 1253Z. 23009KT 10SM SCT220 02/M09 A2993 (TWO NINER NINER THREE) RMK AO2 SLP128. HAZUS WX INFO FOR CO, KS, NE, WY AVBL FM FLT SVC. DEPG RWY17L, RWY17R. ACFT MUST READ BACK ASSIGNED HDG OR FIRST WPT WITH TAKE OFF CLNC. NOTAMS... TWY L CLSD BTN TWY Z AND TWY EE .. EE DEE ICE PAD CLOSED BETWEEN R8 AND R9. BIRD ACTIVITY VICINITY ARPT. ALL ACFT IN CONCOURSE AREA ADZ RAMP TWR OF DP AND TRSN. ...ADVS YOU HAVE INFO G.▲ Up
DM792337 ATIS KDEN D▼ Dn
A30731CLEARED TO KAUS VIA SABTH2 VRONI PNH J17 ABI DILLO LAIKS2. SQUAWK 3442.▲ Up
Q00620[LINK ACK]▲ Up
Q00620[LINK TEST]▼ Dn


AIRCRAFT HISTORY
FLIGHT DATE FLIGHT NO. ORIGIN DESTINATION CLEARED ROUTE BLOCK TIME FLIGHT TIME FUEL USED PILOT
2021-02-14UAL1874KDEN KJAC KDEN DDRTH DNW KJAC1.4 hrs1.1 hrs7,811 lbZsolt Szivak
2021-02-11UAL595KAUS KDEN KAUS WLMRT ELOEL KLNGR SPS LBL HALEN KOORN IDOLL NIIXX HAGGR BSTON BOSSS RW35L2.7 hrs2.4 hrs14,518 lbNiklas Graefe
2021-01-21UAL2377KDEN KAUS KDEN BRKEM LENNN TIKLR CIROS ICECI SHOJO SABTH VRONI PNH TURKI DUMPS ABI DILLO SZAGI LAIKS BOYZZ CRLOS HOUKM RW17L2.1 hrs1.7 hrs10,254 lbNiklas Graefe
2021-01-10UAL2240KPDX KDEN KPDX RIVRR COSUG HADIS WHAMY IMB BOI PIH OCS MJANE MSTSH HIPEE FOLSM BBOCO FLATI ELLDO TOTTT YESSS BAACK BABAA HIMOM CELBI RW35L2.6 hrs2.2 hrs12,478 lbNiklas Graefe
2020-12-19UAL479KSFO KPDX KSFO TYDYE TRUKN GRTFL SPNSR GSTER MOXEE PORTL TMBRS VANTZ FLOWR FFULL SSAIL MYCRO BBREW PUBBB HAIRN RW10R1.7 hrs1.5 hrs8,609 lbNiklas Graefe
2020-11-14UAL519KMSO KSFO KMSO IPPUG VICTO OCFOW LKT WNDEL MRRLO MSCAT BGGLO LOZIT BDEGA CORKK BRIXX BERKS RW19L2.5 hrs2.2 hrs15,641 lbChemtrails
2020-11-13UAL3929KDFW KMSO KDFW FUZ BATIK SPS LBL FQF MBW BOY HIA LOLLO RW124.6 hrs4.3 hrs20,711 lbPete L.
2020-10-26UAL3892KGPI KDFW KGPI HUCKL ANGIL GRCON CHOTE GTF BIL MBW LAR DVV LAA LBL MDANO BELFR LETNN ZUBOV VKTRY JOVEM MSSLE SILER KBOOM FUEWL ALLIN RW36L3.4 hrs3.1 hrs18,486 lbPete L.
2020-10-23UAL2215KDEN KGPI 2.1 hrs1.9 hrs12,205 lbPete L.
2020-10-23UAL2215KRNO KDEN KRNO SPLTM RYANN JSICA MLF LUDOH BUMMP SNOEE BOWLL ABASN KTOOO SSKII BGDEE CRAGG NARLE TELLR RW34R2.2 hrs1.8 hrs11,411 lbPete L.
2020-10-22UAL2141KDEN KRNO KDEN MUGBE RALFI RAPDS PCKNS ZIMMR CHNGY WAATS BVL FASTE MYBAD WHATZ WADOL MYYAA SALLI FMG HHOPE WAGGE RW34L2.4 hrs2.1 hrs13,175 lbPete L.
2020-10-14UAL3922KMSO KDEN 1.7 hrs1.3 hrs9,352 lbPete L.
2020-10-14UAL3922KPHX KMSO KPHX ZEPER KARLO CHILY HOBES ILC TWF LKT WEDAK RW302.4 hrs2.2 hrs13,848 lbPete L.
2020-09-03UAL5920CYLW KPHX CYLW LWNB LW ONSET DNJ TWF MLF TENTS PANTD DUTEY MAIER BRUSR ANNTI ZILUB BRIEZ KUCOO JURAZ JAGAL RW262.7 hrs2.5 hrs14,563 lbPete L.
2020-09-02UAL6382KIAH CYLW KIAH WLLIS LOA DOLEY FUZ LBL LAA FQF OCS DBS LKT MLP TWIGY CFRBZ FINBO YXC TAGBA OMPIM NORIP BEVOT VILMO AMBAT RW344.5 hrs4.2 hrs27,179 lbPete L.
2020-07-28UAL9955MSLP KIAH MSLP MEDIR BETAS TABSA KEHLI KELPP MULLT SKALE LINKK GILLL RDFSH RW273 hrs2.9 hrs13,952 lbNiklas Graefe